createdAt,value
2018-04-09T00:02:24.203Z,96617.35
2018-04-09T00:04:55.241Z,96618.32
2018-04-09T00:07:26.204Z,96617.27
2018-04-09T00:09:57.221Z,96616.63
2018-04-09T00:12:28.221Z,96617.08
2018-04-09T00:14:59.213Z,96614.06
2018-04-09T00:17:30.223Z,96610.67
2018-04-09T00:20:01.179Z,96620.31
2018-04-09T00:22:32.161Z,96616.36
2018-04-09T00:25:03.126Z,96620.98
2018-04-09T00:27:34.128Z,96619.05
2018-04-09T00:30:05.132Z,96615.75
2018-04-09T00:32:36.154Z,96618.55
2018-04-09T00:35:07.173Z,96631.16
2018-04-09T00:37:38.151Z,96626.30
2018-04-09T00:40:09.153Z,96622.24
2018-04-09T00:42:40.134Z,96614.73
2018-04-09T00:45:11.166Z,96607.92
2018-04-09T00:47:42.136Z,96609.37
2018-04-09T00:50:13.125Z,96603.09
2018-04-09T00:52:44.096Z,96602.59
2018-04-09T00:55:15.035Z,96600.38
2018-04-09T00:57:46.092Z,96604.22
2018-04-09T01:00:17.054Z,96598.06
2018-04-09T01:02:48.059Z,96600.31
2018-04-09T01:05:19.099Z,96598.64
2018-04-09T01:07:50.101Z,96591.26
2018-04-09T01:10:21.115Z,96588.38
2018-04-09T01:12:52.090Z,96587.75
2018-04-09T01:15:23.072Z,96577.63
2018-04-09T01:17:54.024Z,96577.80
2018-04-09T01:20:25.009Z,96576.09
2018-04-09T01:22:55.985Z,96578.37
2018-04-09T01:25:26.956Z,96579.95
2018-04-09T01:27:57.916Z,96580.88
2018-04-09T01:30:28.978Z,96584.30
2018-04-09T01:32:59.924Z,96585.23
2018-04-09T01:35:30.927Z,96584.09
2018-04-09T01:38:01.920Z,96580.27
2018-04-09T01:40:32.891Z,96587.66
2018-04-09T01:43:03.880Z,96587.95
2018-04-09T01:45:34.931Z,96580.45
2018-04-09T01:48:05.969Z,96570.44
2018-04-09T01:50:36.928Z,96564.55
2018-04-09T01:53:07.937Z,96560.28
2018-04-09T01:55:38.915Z,96559.11
2018-04-09T01:58:09.875Z,96564.53
2018-04-09T02:00:40.877Z,96561.64
2018-04-09T02:03:11.890Z,96563.75
2018-04-09T02:05:42.895Z,96560.86
2018-04-09T02:08:13.913Z,96562.70
2018-04-09T02:10:44.945Z,96561.02
2018-04-09T02:13:15.945Z,96565.90
2018-04-09T02:15:46.958Z,96562.61
2018-04-09T02:18:17.949Z,96568.94
2018-04-09T02:20:48.935Z,96574.47
2018-04-09T02:23:19.977Z,96579.20
2018-04-09T02:25:50.986Z,96585.14
2018-04-09T02:28:21.967Z,96581.45
2018-04-09T02:30:52.908Z,96578.32
2018-04-09T02:33:23.880Z,96571.61
2018-04-09T02:35:54.865Z,96572.27
2018-04-09T02:38:25.844Z,96573.19
2018-04-09T02:40:56.881Z,96557.16
2018-04-09T02:43:27.917Z,96549.39
2018-04-09T02:45:58.938Z,96547.44
2018-04-09T02:48:29.939Z,96547.84
2018-04-09T02:51:00.926Z,96555.91
2018-04-09T02:53:31.891Z,96557.98
2018-04-09T02:56:02.986Z,96567.33
2018-04-09T02:58:33.980Z,96566.28
2018-04-09T03:01:04.973Z,96556.66
2018-04-09T03:03:36.003Z,96557.19
2018-04-09T03:06:07.074Z,96559.92
2018-04-09T03:08:38.023Z,96568.09
2018-04-09T03:11:09.012Z,96572.99
2018-04-09T03:13:40.013Z,96576.29
2018-04-09T03:16:10.994Z,96573.92
2018-04-09T03:18:41.984Z,96575.95
2018-04-09T03:21:12.980Z,96569.89
2018-04-09T03:23:43.957Z,96563.71
2018-04-09T03:26:14.968Z,96564.11
2018-04-09T03:28:45.999Z,96563.58
2018-04-09T03:31:16.992Z,96552.68
2018-04-09T03:33:48.022Z,96537.31
2018-04-09T03:36:18.999Z,96541.16
2018-04-09T03:38:49.989Z,96547.21
2018-04-09T03:41:20.991Z,96549.84
2018-04-09T03:43:51.991Z,96552.70
2018-04-09T03:46:22.964Z,96563.00
2018-04-09T03:48:53.951Z,96568.66
2018-04-09T03:51:24.955Z,96573.92
2018-04-09T03:53:55.959Z,96576.71
2018-04-09T03:56:26.965Z,96576.31
2018-04-09T03:58:57.944Z,96573.81
2018-04-09T04:01:28.919Z,96586.61
2018-04-09T04:03:59.925Z,96583.31
2018-04-09T04:06:30.954Z,96578.86
2018-04-09T04:09:02.000Z,96580.02
2018-04-09T04:11:33.080Z,96580.67
2018-04-09T04:14:04.055Z,96578.97
2018-04-09T04:16:47.467Z,96576.97
2018-04-09T04:19:30.672Z,96585.53
2018-04-09T04:22:01.708Z,96580.55
2018-04-09T04:24:32.692Z,96576.70
2018-04-09T04:27:03.747Z,96565.66
2018-04-09T04:29:34.751Z,96564.58
2018-04-09T04:32:05.782Z,96566.95
2018-04-09T04:34:36.803Z,96559.03
2018-04-09T04:37:07.872Z,96556.00
2018-04-09T04:39:38.849Z,96557.81
2018-04-09T04:42:09.851Z,96553.44
2018-04-09T04:44:40.865Z,96538.92
2018-04-09T04:47:11.854Z,96536.19
2018-04-09T04:49:42.880Z,96536.95
2018-04-09T04:52:13.905Z,96543.27
2018-04-09T04:54:44.924Z,96546.13
2018-04-09T04:57:15.904Z,96538.06
2018-04-09T04:59:46.882Z,96541.73
2018-04-09T05:02:17.859Z,96539.55
2018-04-09T05:04:48.881Z,96542.94
2018-04-09T05:07:19.839Z,96549.92
2018-04-09T05:09:50.844Z,96550.68
2018-04-09T05:12:21.816Z,96558.09
2018-04-09T05:14:52.823Z,96570.57
2018-04-09T05:17:23.789Z,96568.55
2018-04-09T05:19:54.760Z,96570.14
2018-04-09T05:22:25.723Z,96570.14
2018-04-09T05:24:56.687Z,96564.17
2018-04-09T05:27:27.677Z,96572.00
2018-04-09T05:29:58.682Z,96571.86
2018-04-09T05:32:29.655Z,96573.58
2018-04-09T05:35:00.677Z,96575.69
2018-04-09T05:37:31.706Z,96576.09
2018-04-09T05:40:02.730Z,96578.31
2018-04-09T05:42:33.747Z,96581.17
2018-04-09T05:45:04.769Z,96579.28
2018-04-09T05:47:35.806Z,96581.14
2018-04-09T05:50:06.854Z,96581.16
2018-04-09T05:52:37.863Z,96585.02
2018-04-09T05:55:08.878Z,96577.71
2018-04-09T05:57:39.887Z,96582.25
2018-04-09T06:00:10.926Z,96589.31
2018-04-09T06:02:41.908Z,96590.20
2018-04-09T06:05:12.917Z,96594.25
2018-04-09T06:07:43.953Z,96588.30
2018-04-09T06:10:14.969Z,96585.80
2018-04-09T06:12:45.981Z,96583.77
2018-04-09T06:15:16.978Z,96577.28
2018-04-09T06:17:47.986Z,96572.15
2018-04-09T06:20:18.971Z,96569.55
2018-04-09T06:22:49.987Z,96574.42
2018-04-09T06:25:20.976Z,96567.44
2018-04-09T06:27:52.018Z,96568.20
2018-04-09T06:30:22.971Z,96560.22
2018-04-09T06:32:53.972Z,96557.34
2018-04-09T06:35:24.947Z,96554.11
2018-04-09T06:37:55.955Z,96543.78
2018-04-09T06:40:26.993Z,96531.69
2018-04-09T06:42:57.980Z,96531.78
2018-04-09T06:45:29.047Z,96527.58
2018-04-09T06:48:00.016Z,96528.19
2018-04-09T06:50:31.073Z,96516.79
2018-04-09T06:53:02.025Z,96518.21
2018-04-09T06:55:33.058Z,96515.55
2018-04-09T06:58:04.111Z,96514.53
2018-04-09T07:00:35.157Z,96512.63
2018-04-09T07:03:06.120Z,96508.89
2018-04-09T07:05:37.072Z,96508.34
2018-04-09T07:08:08.084Z,96510.62
2018-04-09T07:10:39.047Z,96508.89
2018-04-09T07:13:10.028Z,96498.62
2018-04-09T07:15:41.028Z,96500.22
2018-04-09T07:18:11.984Z,96506.06
2018-04-09T07:20:42.989Z,96501.67
2018-04-09T07:23:14.059Z,96502.53
2018-04-09T07:25:45.044Z,96512.91
2018-04-09T07:28:16.046Z,96510.68
2018-04-09T07:30:47.031Z,96510.95
2018-04-09T07:33:17.989Z,96511.70
2018-04-09T07:35:48.975Z,96504.00
2018-04-09T07:38:20.011Z,96511.41
2018-04-09T07:40:50.977Z,96510.80
2018-04-09T07:43:21.948Z,96512.86
2018-04-09T07:45:52.903Z,96516.12
2018-04-09T07:48:23.902Z,96519.58
2018-04-09T07:50:54.907Z,96528.47
2018-04-09T07:53:25.893Z,96536.57
2018-04-09T07:55:56.848Z,96532.20
2018-04-09T07:58:27.791Z,96532.05
2018-04-09T08:00:59.027Z,96522.77
2018-04-09T08:03:30.048Z,96518.41
2018-04-09T08:06:01.055Z,96517.09
2018-04-09T08:08:32.065Z,96522.89
2018-04-09T08:11:03.035Z,96518.41
2018-04-09T08:13:34.016Z,96522.68
2018-04-09T08:16:05.003Z,96520.20
2018-04-09T08:18:35.979Z,96508.05
2018-04-09T08:21:06.936Z,96501.20
2018-04-09T08:23:37.927Z,96489.50
2018-04-09T08:26:08.932Z,96487.98
2018-04-09T08:28:39.920Z,96490.99
2018-04-09T08:31:10.939Z,96487.87
2018-04-09T08:33:41.913Z,96475.68
2018-04-09T08:36:12.892Z,96483.13
2018-04-09T08:38:43.871Z,96479.75
2018-04-09T08:41:14.872Z,96474.39
2018-04-09T08:43:45.839Z,96478.78
2018-04-09T08:46:16.815Z,96473.59
2018-04-09T08:48:47.845Z,96472.10
2018-04-09T08:51:18.876Z,96478.56
2018-04-09T08:53:49.905Z,96498.23
2018-04-09T08:56:20.890Z,96490.17
2018-04-09T08:58:51.881Z,96490.06
2018-04-09T09:01:22.803Z,96498.74
2018-04-09T09:03:53.795Z,96499.32
2018-04-09T09:06:24.784Z,96491.42
2018-04-09T09:08:55.754Z,96482.77
2018-04-09T09:11:26.747Z,96478.92
2018-04-09T09:13:57.733Z,96476.78
2018-04-09T09:16:28.688Z,96475.09
2018-04-09T09:18:59.675Z,96467.37
2018-04-09T09:21:30.675Z,96470.33
2018-04-09T09:24:01.672Z,96465.71
2018-04-09T09:26:32.628Z,96460.39
2018-04-09T09:29:03.612Z,96453.64
2018-04-09T09:31:34.619Z,96446.48
2018-04-09T09:34:05.587Z,96449.69
2018-04-09T09:36:36.580Z,96448.28
2018-04-09T09:39:07.524Z,96449.36
2018-04-09T09:41:38.523Z,96449.13
2018-04-09T09:44:09.491Z,96448.39
2018-04-09T09:46:40.523Z,96447.81
2018-04-09T09:49:11.530Z,96439.05
2018-04-09T09:51:42.934Z,96437.12
2018-04-09T09:54:13.922Z,96430.05
2018-04-09T09:56:44.936Z,96443.18
2018-04-09T09:59:15.945Z,96447.98
2018-04-09T10:01:46.991Z,96436.21
2018-04-09T10:04:20.096Z,96444.59
2018-04-09T10:06:51.033Z,96438.77
2018-04-09T10:09:22.068Z,96442.31
2018-04-09T10:11:53.045Z,96431.77
2018-04-09T10:14:24.018Z,96427.18
2018-04-09T10:16:55.017Z,96428.66
2018-04-09T10:19:26.056Z,96426.30
2018-04-09T10:21:57.060Z,96416.04
2018-04-09T10:24:28.069Z,96423.16
2018-04-09T10:26:59.047Z,96415.62
2018-04-09T10:29:30.043Z,96413.16
2018-04-09T10:32:01.089Z,96409.34
2018-04-09T10:34:32.096Z,96406.52
2018-04-09T10:37:03.082Z,96397.81
2018-04-09T10:39:34.087Z,96394.58
2018-04-09T10:42:05.141Z,96401.60
2018-04-09T10:44:36.121Z,96388.89
2018-04-09T10:47:07.124Z,96388.02
2018-04-09T10:49:38.186Z,96382.31
2018-04-09T10:52:09.212Z,96380.69
2018-04-09T10:54:40.197Z,96379.82
2018-04-09T10:57:11.187Z,96373.17
2018-04-09T10:59:42.191Z,96365.67
2018-04-09T11:02:13.178Z,96366.53
2018-04-09T11:04:44.197Z,96368.31
2018-04-09T11:07:15.190Z,96363.08
2018-04-09T11:09:46.227Z,96350.49
2018-04-09T11:12:17.223Z,96347.78
2018-04-09T11:14:48.248Z,96347.93
2018-04-09T11:17:19.279Z,96340.66
2018-04-09T11:19:50.267Z,96344.31
2018-04-09T11:22:21.322Z,96346.69
2018-04-09T11:24:52.291Z,96338.19
2018-04-09T11:27:23.264Z,96344.69
2018-04-09T11:29:54.240Z,96352.23
2018-04-09T11:32:25.281Z,96356.63
2018-04-09T11:34:56.234Z,96351.88
2018-04-09T11:37:27.288Z,96348.47
2018-04-09T11:39:58.282Z,96347.47
2018-04-09T11:42:29.300Z,96353.25
2018-04-09T11:45:00.254Z,96342.27
2018-04-09T11:47:31.239Z,96345.37
2018-04-09T11:50:02.266Z,96343.23
2018-04-09T11:52:33.239Z,96341.28
2018-04-09T11:55:04.272Z,96338.98
2018-04-09T11:57:35.254Z,96337.28
2018-04-09T12:00:06.261Z,96333.78
2018-04-09T12:02:37.283Z,96333.56
2018-04-09T12:05:08.226Z,96332.95
2018-04-09T12:07:39.245Z,96324.85
2018-04-09T12:10:10.247Z,96320.03
2018-04-09T12:12:41.256Z,96314.84
2018-04-09T12:15:12.198Z,96310.44
2018-04-09T12:17:43.221Z,96311.55
2018-04-09T12:20:14.192Z,96310.77
2018-04-09T12:22:45.217Z,96305.06
2018-04-09T12:25:16.222Z,96301.07
2018-04-09T12:27:47.203Z,96291.93
2018-04-09T12:30:18.215Z,96295.02
2018-04-09T12:32:49.227Z,96294.00
2018-04-09T12:35:20.182Z,96293.95
2018-04-09T12:37:51.210Z,96284.91
2018-04-09T12:40:22.178Z,96283.97
2018-04-09T12:42:53.184Z,96281.07
2018-04-09T12:45:24.156Z,96280.36
2018-04-09T12:47:55.148Z,96283.00
2018-04-09T12:50:26.091Z,96277.34
2018-04-09T12:52:57.098Z,96283.04
2018-04-09T12:55:28.127Z,96283.30
2018-04-09T12:57:59.111Z,96272.41
2018-04-09T13:00:30.156Z,96263.69
2018-04-09T13:03:01.146Z,96256.86
2018-04-09T13:05:32.139Z,96256.09
2018-04-09T13:08:03.167Z,96248.16
2018-04-09T13:10:34.160Z,96256.10
2018-04-09T13:13:05.174Z,96245.02
2018-04-09T13:15:36.166Z,96247.19
2018-04-09T13:18:07.178Z,96251.91
2018-04-09T13:20:38.183Z,96251.06
2018-04-09T13:23:09.137Z,96244.05
2018-04-09T13:25:40.118Z,96245.06
2018-04-09T13:28:11.125Z,96240.03
2018-04-09T13:30:42.148Z,96237.42
2018-04-09T13:33:13.140Z,96232.77
2018-04-09T13:35:44.111Z,96231.23
2018-04-09T13:38:15.135Z,96223.70
2018-04-09T13:40:46.086Z,96214.28
2018-04-09T13:43:17.086Z,96211.68
2018-04-09T13:45:48.055Z,96216.28
2018-04-09T13:48:19.034Z,96206.82
2018-04-09T13:50:50.039Z,96204.73
2018-04-09T13:53:21.077Z,96204.23
2018-04-09T13:55:52.093Z,96208.20
2018-04-09T13:58:23.124Z,96206.02
2018-04-09T14:00:54.073Z,96198.84
2018-04-09T14:03:25.080Z,96203.68
2018-04-09T14:05:56.116Z,96202.64
2018-04-09T14:08:27.095Z,96193.42
2018-04-09T14:10:58.107Z,96191.92
2018-04-09T14:13:29.089Z,96188.54
2018-04-09T14:16:00.075Z,96187.64
2018-04-09T14:18:31.049Z,96187.38
2018-04-09T14:21:02.082Z,96189.41
2018-04-09T14:23:33.087Z,96194.31
2018-04-09T14:26:04.075Z,96195.17
2018-04-09T14:28:35.081Z,96192.92
2018-04-09T14:31:06.133Z,96202.22
2018-04-09T14:33:37.154Z,96203.39
2018-04-09T14:36:08.147Z,96198.87
2018-04-09T14:38:39.111Z,96201.41
2018-04-09T14:41:10.124Z,96200.28
2018-04-09T14:43:41.144Z,96195.64
2018-04-09T14:46:12.150Z,96192.55
2018-04-09T14:48:43.135Z,96192.33
2018-04-09T14:51:14.151Z,96187.48
2018-04-09T14:53:45.119Z,96187.08
2018-04-09T14:56:16.111Z,96192.92
2018-04-09T14:58:47.083Z,96190.06
2018-04-09T15:01:18.107Z,96186.78
2018-04-09T15:03:49.099Z,96177.88
2018-04-09T15:06:20.167Z,96181.47
2018-04-09T15:08:51.157Z,96175.28
2018-04-09T15:11:22.163Z,96172.94
2018-04-09T15:13:53.171Z,96169.59
2018-04-09T15:16:24.197Z,96160.52
2018-04-09T15:18:55.172Z,96161.88
2018-04-09T15:21:26.194Z,96162.36
2018-04-09T15:23:57.130Z,96168.23
2018-04-09T15:26:28.126Z,96168.69
2018-04-09T15:28:59.159Z,96171.03
2018-04-09T15:31:30.130Z,96167.65
2018-04-09T15:34:01.139Z,96163.45
2018-04-09T15:36:32.156Z,96164.88
2018-04-09T15:39:03.241Z,96165.33
2018-04-09T15:41:34.201Z,96159.59
2018-04-09T15:44:05.237Z,96164.39
2018-04-09T15:46:36.254Z,96163.56
2018-04-09T15:49:07.223Z,96163.26
2018-04-09T15:51:38.475Z,96164.20
2018-04-09T15:54:09.436Z,96169.94
2018-04-09T15:56:40.435Z,96164.15
2018-04-09T15:59:11.395Z,96165.36
2018-04-09T16:01:42.444Z,96164.55
2018-04-09T16:04:13.445Z,96163.52
2018-04-09T16:06:44.500Z,96168.85
2018-04-09T16:09:15.478Z,96168.16
2018-04-09T16:11:46.496Z,96167.38
2018-04-09T16:14:17.481Z,96168.28
2018-04-09T16:16:48.479Z,96170.32
2018-04-09T16:19:19.554Z,96167.78
2018-04-09T16:21:50.518Z,96165.13
2018-04-09T16:24:21.537Z,96162.73
2018-04-09T16:26:52.531Z,96167.58
2018-04-09T16:29:23.497Z,96171.88
2018-04-09T16:31:54.446Z,96170.47
2018-04-09T16:34:25.442Z,96171.52
2018-04-09T16:36:56.414Z,96166.67
2018-04-09T16:39:27.456Z,96165.33
2018-04-09T16:41:58.479Z,96166.67
2018-04-09T16:44:29.509Z,96172.63
2018-04-09T16:47:00.494Z,96177.48
2018-04-09T16:49:31.519Z,96176.35
2018-04-09T16:52:02.610Z,96174.97
2018-04-09T16:54:33.581Z,96173.56
2018-04-09T16:57:04.605Z,96173.62
2018-04-09T16:59:35.659Z,96178.06
2018-04-09T17:02:06.705Z,96185.52
2018-04-09T17:04:37.726Z,96184.49
2018-04-09T17:07:08.716Z,96177.61
2018-04-09T17:09:39.742Z,96180.61
2018-04-09T17:12:10.821Z,96178.70
2018-04-09T17:14:41.845Z,96183.75
2018-04-09T17:17:12.868Z,96181.56
2018-04-09T17:19:43.912Z,96174.39
2018-04-09T17:22:14.911Z,96182.89
2018-04-09T17:24:45.951Z,96184.23
2018-04-09T17:27:16.958Z,96185.75
2018-04-09T17:29:48.010Z,96184.38
2018-04-09T17:32:18.985Z,96185.88
2018-04-09T17:34:50.007Z,96180.64
2018-04-09T17:37:21.000Z,96186.40
2018-04-09T17:39:52.001Z,96185.33
2018-04-09T17:42:23.013Z,96186.02
2018-04-09T17:44:54.000Z,96186.03
2018-04-09T17:47:25.060Z,96187.56
2018-04-09T17:49:56.016Z,96188.70
2018-04-09T17:52:27.025Z,96194.06
2018-04-09T17:54:58.003Z,96192.30
2018-04-09T17:57:29.008Z,96194.81
2018-04-09T18:00:00.022Z,96197.78
2018-04-09T18:02:31.099Z,96203.05
2018-04-09T18:05:02.049Z,96202.40
2018-04-09T18:07:33.069Z,96199.20
2018-04-09T18:10:04.033Z,96199.82
2018-04-09T18:12:35.023Z,96208.78
2018-04-09T18:15:06.055Z,96207.07
2018-04-09T18:17:37.059Z,96207.18
2018-04-09T18:20:08.066Z,96210.64
2018-04-09T18:22:39.045Z,96211.39
2018-04-09T18:25:10.055Z,96214.22
2018-04-09T18:27:41.016Z,96207.55
2018-04-09T18:30:12.009Z,96204.34
2018-04-09T18:32:42.996Z,96210.61
2018-04-09T18:35:14.025Z,96213.60
2018-04-09T18:37:44.969Z,96210.93
2018-04-09T18:40:15.982Z,96216.77
2018-04-09T18:42:46.969Z,96216.30
2018-04-09T18:45:17.989Z,96217.08
2018-04-09T18:47:49.008Z,96225.16
2018-04-09T18:50:19.988Z,96223.09
2018-04-09T18:52:51.027Z,96223.39
2018-04-09T18:55:22.077Z,96221.09
2018-04-09T18:57:53.061Z,96226.57
2018-04-09T19:00:24.031Z,96219.06
2018-04-09T19:02:55.084Z,96218.73
2018-04-09T19:05:26.093Z,96220.98
2018-04-09T19:07:57.045Z,96222.61
2018-04-09T19:10:28.062Z,96228.77
2018-04-09T19:12:59.071Z,96233.28
2018-04-09T19:15:30.043Z,96236.85
2018-04-09T19:18:01.042Z,96236.77
2018-04-09T19:20:32.032Z,96233.42
2018-04-09T19:23:03.052Z,96228.69
2018-04-09T19:25:34.050Z,96238.51
2018-04-09T19:28:05.038Z,96230.09
2018-04-09T19:30:36.087Z,96232.94
2018-04-09T19:33:07.075Z,96233.16
2018-04-09T19:35:44.294Z,96229.28
2018-04-09T19:38:21.527Z,96224.53
2018-04-09T19:40:52.538Z,96230.84
2018-04-09T19:43:23.672Z,96231.02
2018-04-09T19:45:54.659Z,96228.62
2018-04-09T19:48:25.695Z,96236.69
2018-04-09T19:50:56.665Z,96240.73
2018-04-09T19:53:27.722Z,96240.45
2018-04-09T19:55:58.713Z,96236.69
2018-04-09T19:58:29.717Z,96234.13
2018-04-09T20:01:00.762Z,96239.69
2018-04-09T20:03:31.826Z,96237.98
2018-04-09T20:06:02.783Z,96239.16
2018-04-09T20:08:33.776Z,96244.55
2018-04-09T20:11:04.785Z,96246.50
2018-04-09T20:13:35.818Z,96238.41
2018-04-09T20:16:06.829Z,96237.06
2018-04-09T20:18:37.869Z,96239.09
2018-04-09T20:21:08.883Z,96234.09
2018-04-09T20:23:39.922Z,96229.49
2018-04-09T20:26:10.909Z,96222.86
2018-04-09T20:28:41.895Z,96223.32
2018-04-09T20:31:12.878Z,96222.55
2018-04-09T20:33:43.850Z,96223.84
2018-04-09T20:36:14.904Z,96222.19
2018-04-09T20:38:45.956Z,96214.13
2018-04-09T20:41:16.935Z,96220.13
2018-04-09T20:43:47.943Z,96215.19
2018-04-09T20:46:18.947Z,96214.19
2018-04-09T20:48:49.948Z,96212.47
2018-04-09T20:51:20.968Z,96211.45
2018-04-09T20:53:52.002Z,96213.23
2018-04-09T20:56:23.009Z,96207.29
2018-04-09T20:58:53.984Z,96205.13
2018-04-09T21:01:24.967Z,96208.14
2018-04-09T21:03:55.964Z,96206.81
2018-04-09T21:06:27.019Z,96212.11
2018-04-09T21:08:58.010Z,96209.77
2018-04-09T21:11:29.025Z,96209.97
2018-04-09T21:13:59.978Z,96209.48
2018-04-09T21:16:30.957Z,96213.80
2018-04-09T21:19:01.967Z,96214.92
2018-04-09T21:21:32.954Z,96218.70
2018-04-09T21:24:04.411Z,96214.47
2018-04-09T21:26:35.433Z,96215.30
2018-04-09T21:29:06.437Z,96222.73
2018-04-09T21:31:37.412Z,96218.79
2018-04-09T21:34:08.379Z,96219.75
2018-04-09T21:36:39.371Z,96209.69
2018-04-09T21:39:10.399Z,96205.77
2018-04-09T21:41:41.405Z,96208.02
2018-04-09T21:44:12.454Z,96211.45
2018-04-09T21:46:43.452Z,96201.09
2018-04-09T21:49:14.421Z,96202.63
2018-04-09T21:51:45.466Z,96199.27
2018-04-09T21:54:16.429Z,96200.95
2018-04-09T21:56:47.411Z,96192.73
2018-04-09T21:59:18.385Z,96199.20
2018-04-09T22:01:49.363Z,96204.25
2018-04-09T22:04:20.363Z,96198.83
2018-04-09T22:06:51.383Z,96200.97
2018-04-09T22:09:22.438Z,96196.48
2018-04-09T22:11:53.424Z,96204.30
2018-04-09T22:14:24.422Z,96195.63
2018-04-09T22:16:55.385Z,96194.45
2018-04-09T22:19:26.364Z,96198.00
2018-04-09T22:21:57.373Z,96202.02
2018-04-09T22:24:28.382Z,96201.70
2018-04-09T22:26:59.389Z,96201.56
2018-04-09T22:29:30.396Z,96200.70
2018-04-09T22:32:01.396Z,96195.48
2018-04-09T22:34:32.392Z,96202.39
2018-04-09T22:37:03.342Z,96208.12
2018-04-09T22:39:34.379Z,96205.69
2018-04-09T22:42:05.421Z,96204.48
2018-04-09T22:44:36.465Z,96205.31
2018-04-09T22:47:07.452Z,96209.55
2018-04-09T22:49:38.453Z,96208.66
2018-04-09T22:52:09.412Z,96211.52
2018-04-09T22:54:40.445Z,96208.95
2018-04-09T22:57:11.472Z,96208.80
2018-04-09T22:59:42.534Z,96206.48
2018-04-09T23:02:13.524Z,96207.88
2018-04-09T23:04:44.549Z,96208.63
2018-04-09T23:07:15.554Z,96217.09
2018-04-09T23:09:46.620Z,96217.34
2018-04-09T23:12:17.616Z,96218.42
2018-04-09T23:14:48.611Z,96221.42
2018-04-09T23:17:19.595Z,96223.57
2018-04-09T23:19:50.613Z,96228.32
2018-04-09T23:22:33.796Z,96231.78
2018-04-09T23:25:04.829Z,96238.59
2018-04-09T23:27:35.803Z,96238.44
2018-04-09T23:30:06.814Z,96241.02
2018-04-09T23:32:37.836Z,96243.83
2018-04-09T23:35:08.828Z,96242.54
2018-04-09T23:37:39.862Z,96239.99
2018-04-09T23:40:10.821Z,96236.34
2018-04-09T23:42:41.845Z,96235.91
2018-04-09T23:45:12.822Z,96230.33
2018-04-09T23:47:43.819Z,96220.73
2018-04-09T23:50:14.810Z,96228.17
2018-04-09T23:52:45.811Z,96231.64
2018-04-09T23:55:16.808Z,96219.61
2018-04-09T23:57:47.789Z,96214.25
